Nathan Promes

Chefscout - AZ
4 Dez 2028
Montag
Verarbeitung

Persönlichkeit

Anpassungsfähigkeit (1) Ehrgeiz (1) Kontroverse (1) Loyalität (18) Druck (20) Professionalität (15) Fairness (16) Temperament (6)

Profil

Trainerstil Demokratisch
Lizenz Kontinentale C
Entschlossenheit 10
Menschenführung 12
Motivation 7
Disziplin 10
Arbeitszufriedenheit
100%
Ermüdung
0%
Rolle Chefscout
Gehalt 67.2K p/W
Vertrag 14.03.2030

Leistung

Verhalten Gut
Trainingseffektivität
31%
Spielerentwicklung
45%
Verletzungsprävention
65%
Taktische Umsetzung
30%

Letzte Ereignisse

Nahm an einer Scouting-Besprechung teil jetzt
Empfahl ein Transferziel jetzt
Empfahl ein Transferziel jetzt
Empfahl ein Transferziel jetzt
Spieler begutachtet jetzt
Spieler begutachtet jetzt
Spieler begutachtet jetzt
Spieler begutachtet jetzt

Aktuell beobachtet

208
Spieler Verein Status Fähigkeit Vertrauen Beobachtet Zuletzt beobachtet Letzte Stimme
Giovanni Leoni Lincoln City Aktiv 148 / 152 40% 9 03.12.2028 -
Matias Siltanen Malmo FF Aktiv 133 / 138 40% 7 03.12.2028 -
Martín Jiménez Iquique Aktiv 102 / 106 40% 7 03.12.2028 -
Francesco Cereser Ospitaletto Aktiv 105 / 111 40% 4 03.12.2028 -
Robert Cook Accrington Stanley Aktiv 117 / 124 40% 3 03.12.2028 -
Henrique Menke Zulte Waregem Aktiv 105 / 111 40% 5 03.12.2028 -
Trey Nyoni Rotherham United Aktiv 142 / 152 40% 9 01.12.2028 -
Cheveyo Tsawa Club Brugge Aktiv 130 / 132 40% 11 01.12.2028 -
Joel Ezra Enyimba Aktiv 97 / 105 40% 6 01.12.2028 -
Anothando Menemene University of Pretoria Aktiv 98 / 106 40% 3 01.12.2028 -
Honest Ahanor Atalanta Aktiv 142 / 148 40% 8 29.11.2028 -
Pau Cubarsí Real Sociedad Aktiv 164 / 168 40% 7 29.11.2028 -
Peyton Miller New England Revolution Aktiv 119 / 118 40% 2 28.11.2028 -
Máximo Munarriz San Telmo Aktiv 102 / 108 40% 4 28.11.2028 -
Harrison Armstrong Ipswich Town Aktiv 140 / 146 40% 5 27.11.2028 -
Celías Ingenthron Platense Aktiv 118 / 120 40% 3 27.11.2028 -
Kiani Inge Groningen Aktiv 115 / 128 40% 2 26.11.2028 -
Buba Sangaré Elche Aktiv 135 / 139 40% 3 26.11.2028 -
Gerardo Díaz San Martín SJ Aktiv 113 / 107 40% 4 25.11.2028 -
Luis Otávio Orlando City Aktiv 110 / 117 40% 6 25.11.2028 -
Lisandro Musso Central Córdoba SdE Aktiv 97 / 104 40% 2 25.11.2028 -
Lwandiso Radebe Ajax Cape Town Aktiv 103 / 120 40% 2 25.11.2028 -
Thijs Kraaijeveld USM Alger Aktiv 128 / 134 40% 5 23.11.2028 -
Christos Mouzakitis Hull City Aktiv 141 / 146 40% 5 22.11.2028 -
Marc Bernal Sevilla Aktiv 154 / 159 40% 7 21.11.2028 -
Jassem Abdulla Al-Hammadi Al Jazira Aktiv 106 / 106 40% 3 21.11.2028 -
Ruggero Ferrari Sassuolo Aktiv 86 / 95 40% 1 21.11.2028 -
Jorge Salinas Racing Santander Aktiv 139 / 140 40% 4 17.11.2028 -
Michy Boyata Westerlo Aktiv 95 / 108 40% 1 16.11.2028 -
Sam Proctor Salford City Aktiv 126 / 130 40% 6 15.11.2028 -
Sebastiaan Timmers Racing Genk Aktiv 103 / 114 40% 3 14.11.2028 -
Nicholas Michalski Northampton Town Aktiv 118 / 125 40% 2 14.11.2028 -
Einar Fauskanger Haugesund Aktiv 111 / 121 40% 1 14.11.2028 -
Michy Vertonghen Standard Liege Aktiv 84 / 98 40% 1 13.11.2028 -
Dylan Moody Cheltenham Town Aktiv 125 / 131 40% 3 12.11.2028 -
Aljaž Strajnar Giugliano Aktiv 118 / 123 40% 2 12.11.2028 -
Michy Hazard OH Leuven Aktiv 87 / 102 40% 1 10.11.2028 -
Mohammed El Âdfaoui Westerlo Aktiv 121 / 130 40% 4 07.11.2028 -
Jan Bürger Northampton Town Aktiv 122 / 127 40% 4 03.11.2028 -
Lucas Jetten MC Alger Aktiv 127 / 132 40% 7 03.11.2028 -
Tobías Ramírez River Plate Aktiv 130 / 132 40% 6 02.11.2028 -
Jack Porter Port Vale Aktiv 119 / 127 40% 1 01.11.2028 -
Ayyoub Bouaddi Stoke City Aktiv 150 / 160 40% 4 30.10.2028 -
Jorthy Mokio ADO Den Haag Verhandlung 139 / 143 40% 4 28.10.2028 -
Platon Matiukov Racing Genk Aktiv 100 / 109 40% 2 26.10.2028 -
Aytor Herrera Mineros de Guayana Aktiv 85 / 87 40% 1 24.10.2028 -
Felipe Varela Trujillanos Aktiv 95 / 95 40% 2 23.10.2028 -
Francisco Machis Llaneros Aktiv 89 / 94 40% 1 22.10.2028 -
Adam Olsen Malmo FF Aktiv 87 / 103 40% 2 20.10.2028 -
Mats Frans Waasland-Beveren Aktiv 93 / 100 40% 1 20.10.2028 -
Robbe Mettepenningen KAA Gent Aktiv 82 / 92 40% 1 20.10.2028 -
Oscar Buur Hobro Aktiv 121 / 126 40% 1 19.10.2028 -
Tiago Gordillo San Miguel Aktiv 81 / 97 40% 1 15.10.2028 -
Kamiel Timmermans Anderlecht Aktiv 96 / 104 40% 1 12.10.2028 -
Jared Westveer Zwolle Aktiv 99 / 107 40% 1 10.10.2028 -
Franco Jaroszewicz River Plate Aktiv 116 / 119 40% 1 07.10.2028 -
Alessandro Nunziante Mantova Aktiv 129 / 135 40% 1 07.10.2028 -
Lautaro Dufur Juventud Aktiv 97 / 110 40% 2 06.10.2028 -
Jan Cedilnik Chikhura Aktiv 83 / 89 40% 1 06.10.2028 -
Estanislao López Colón Aktiv 92 / 95 40% 2 03.10.2028 -
Gideon Manaseh Ikorodu City Aktiv 92 / 99 40% 1 02.10.2028 -
Álvaro Busso Vélez Aktiv 117 / 116 40% 1 06.09.2028 -
Mateo Faure BATE Aktiv 84 / 102 40% 1 05.09.2028 -
Lucas Camejo River Plate Aktiv 94 / 84 40% 1 29.08.2028 -
Ismaël Baouf Cambuur Bericht bereit 127 / 124 79% 1 28.08.2028 -
Kwesi Sorotu Badori Berekum Chelsea Aktiv 99 / 105 40% 1 21.08.2028 -
Francisco Arias Gimnasia y Esgrima Aktiv 85 / 97 40% 1 21.08.2028 -
Hosea Michael Remo Stars Aktiv 86 / 90 40% 1 14.08.2028 -
Simone Suppa Virtus Verona Aktiv 89 / 97 40% 1 08.08.2028 -
Mateus Mané Burnley Aktiv 144 / 150 40% 10 31.07.2028 -
Rio Ngumoha Plymouth Argyle Aktiv 147 / 154 40% 2 31.07.2028 -
Daniel Banjaqui Benfica Verloren 130 / 130 40% 1 24.07.2028 -
Amine Boukamir Charleroi Aktiv 104 / 113 40% 2 17.07.2028 -
Jan Bürger Northampton Town Verloren 122 / 126 40% 1 17.07.2028 -
Daniel Banjaqui Benfica Verloren 126 / 134 40% 1 17.07.2028 -
Tyler Fletcher Rotherham United Aktiv 115 / 119 40% 2 03.07.2028 -
Martim Cunha Porto Aktiv 109 / 114 40% 1 03.07.2028 -
Luca Williams-Barnett Walsall Verhandlung 122 / 131 40% 4 26.06.2028 -
Endrick Boca Juniors Aktiv 161 / 163 40% 1 26.06.2028 -
Ringo Meerveld Heerenveen Aktiv 131 / 139 79% 1 19.06.2028 Befürworten
Jorge Salinas Racing Santander Verloren 135 / 134 40% 8 12.06.2028 -
Jan Bürger Northampton Town Verloren 121 / 125 40% 16 12.06.2028 -
Héctor Fort Real Sociedad Aktiv 144 / 146 40% 10 12.06.2028 -
Illaijh de Ruijter ADO Den Haag Aktiv 121 / 130 40% 1 03.06.2028 -
Ibrahim Fullah Charlton Athletic Aktiv 119 / 124 40% 11 02.06.2028 -
Babis Kostoulas Oxford United Aktiv 142 / 146 40% 6 02.06.2028 -
Jorg Schreuders Groningen Aktiv 126 / 130 79% 1 02.06.2028 Befürworten
Vito van Crooij Willem II Verloren 129 / 121 79% 1 01.06.2028 -
Ryan McAidoo Oldham Athletic Aktiv 124 / 129 40% 13 30.05.2028 -
Ryan Kavuma-McQueen Accrington Stanley Aktiv 117 / 132 40% 10 30.05.2028 -
Shea Lacey Crystal Palace Aktiv 134 / 138 40% 4 30.05.2028 -
Igor Tyjon Barrow AFC Verhandlung 113 / 125 40% 10 29.05.2028 -
Aarón Ochoa Málaga Aktiv 123 / 128 40% 2 29.05.2028 -
Gabe Forsyth Colchester United Aktiv 110 / 115 40% 1 27.05.2028 -
Jan Virgili Club Brugge Aktiv 137 / 139 40% 12 26.05.2028 -
Ben Broggio Mansfield Town Aktiv 107 / 117 40% 6 25.05.2028 -
Sindre Walle Egeli Udinese Aktiv 138 / 144 40% 7 17.05.2028 -
Josh Nichols Oldham Athletic Aktiv 122 / 125 40% 5 17.05.2028 -
Eli Junior Kroupi Bournemouth Aktiv 145 / 148 40% 3 14.05.2028 -
Jake Evans Crewe Alexandra Aktiv 109 / 126 40% 1 14.05.2028 -
Omar Khedr Gillingham Aktiv 112 / 121 40% 1 13.05.2028 -
Ryunosuke Sato Eibar Aktiv 132 / 134 40% 6 06.05.2028 -
Givairo Read Feyenoord Aktiv 151 / 155 40% 6 22.04.2028 -
Gilberto Mora Guadalajara Aktiv 140 / 150 40% 4 19.04.2028 -
Hugo Camberos Dorados Aktiv 137 / 129 40% 2 13.04.2028 -
Amin Nabizada Exeter City Aktiv 111 / 119 40% 3 04.04.2028 -
Gabriel Mec Feirense Aktiv 125 / 132 40% 1 31.03.2028 -
Pape Diong Westerlo Aktiv 120 / 123 40% 4 28.03.2028 -
Siyabonga Mabena Bidvest Wits Aktiv 120 / 131 40% 5 27.03.2028 -
André Miranda Porto Aktiv 114 / 117 40% 1 24.03.2028 -
Henrique Carmo Sochi Aktiv 138 / 138 40% 2 23.03.2028 -
Luca Meirelles Kudrivka Aktiv 118 / 124 40% 5 11.03.2028 -
Archie Gray Southampton Aktiv 154 / 152 40% 1 04.03.2028 -
William Gomes Porto Aktiv 155 / 151 40% 3 03.03.2028 -
Josh Acheampong Everton Aktiv 144 / 145 40% 1 19.01.2028 -
Roberto Alvarado Borussia Mönchengladbach Aktiv 139 / 139 66% 1 01.01.2028 Befürworten
Juan Rodríguez Cerro Largo Aktiv 92 / 109 40% 1 31.08.2027 -
Agustín Ruberto River Plate Aktiv 128 / 120 40% 1 31.08.2027 -
Serge Daura PWD Bamenda Aktiv 99 / 102 40% 2 27.08.2027 -
Abubakar Garba Nasarawa United Aktiv 93 / 94 40% 2 27.08.2027 -
Hassan Beja AFC Leopards Aktiv 90 / 89 40% 3 26.08.2027 -
Stanley Amon Bayelsa United Aktiv 89 / 93 40% 1 26.08.2027 -
Michael Noumon Heart of Lions Aktiv 78 / 85 40% 1 25.08.2027 -
Ruben Ramos LA Galaxy Aktiv 95 / 109 40% 1 24.08.2027 -
Maren Kefas Plateau United Aktiv 94 / 97 40% 1 24.08.2027 -
Joseph Abah Remo Stars Aktiv 83 / 92 40% 1 24.08.2027 -
Jeremy van Haalen NEC Aktiv 91 / 97 40% 1 09.08.2027 -
Chineme Chinonso Ikorodu City Aktiv 96 / 97 40% 1 06.08.2027 -
Jeff Ekhator Juventus Aktiv 134 / 136 40% 1 02.08.2027 -
Ryan Oné Sheffield United Aktiv 117 / 121 40% 1 27.07.2027 -
Ayoub Akabou Ceuta Aktiv 92 / 96 40% 1 28.06.2027 -
Aimar Osasuna Aktiv 146 / 144 40% 5 29.05.2027 -
Savinho Tottenham Aktiv 155 / 158 40% 6 29.05.2027 -
Mikel Jauregizar Athletic Bilbao Aktiv 158 / 158 40% 6 28.05.2027 -
Gaspar Gijón Aktiv 138 / 135 40% 5 28.05.2027 -
Finn Azaz Southampton Aktiv 135 / 127 40% 1 28.05.2027 -
Carlos Forbs Club Brugge Aktiv 134 / 136 40% 11 27.05.2027 -
Derensili Sanches Fernandes Huddersfield Town Aktiv 128 / 121 40% 1 27.05.2027 -
Andrés Martín Racing Santander Aktiv 137 / 133 40% 10 26.05.2027 -
Jonathan Dubasin Osasuna Aktiv 145 / 140 40% 3 24.05.2027 -
Luciano Valente Feyenoord Aktiv 138 / 144 40% 7 21.05.2027 Beobachten
Yannick Onana KV Oostende Aktiv 92 / 98 40% 2 19.05.2027 -
David Larrubia Málaga Aktiv 132 / 129 40% 1 17.05.2027 -
Chemsdine Talbi Sunderland Aktiv 146 / 144 40% 4 15.05.2027 -
Muhammadyusuf Sobirov Bunyodkor Aktiv 107 / 107 40% 3 15.05.2027 -
Bark Abdramane AS PSI Aktiv 76 / 81 40% 1 11.05.2027 -
Daniil Silev Sochi Aktiv 80 / 86 40% 1 11.05.2027 -
Manu Koné AS Roma Aktiv 168 / 161 40% 7 07.05.2027 -
Yeremy Pino Crystal Palace Aktiv 151 / 147 40% 4 07.05.2027 -
Ilias Sebaoui Sint-Truiden Aktiv 127 / 125 40% 6 05.05.2027 -
Georges Mikautadze Villarreal Aktiv 158 / 149 40% 1 05.05.2027 -
Andy Ezekiel Petrojet Aktiv 87 / 96 40% 1 01.05.2027 -
Pablo Torre Mallorca Aktiv 148 / 143 40% 4 29.04.2027 -
Ben Thys Giana Erminio Aktiv 78 / 80 40% 1 28.04.2027 -
Moisés Caicedo Chelsea Aktiv 168 / 172 40% 2 25.04.2027 -
Pau Víctor Braga Aktiv 142 / 136 40% 13 24.04.2027 -
Roberto Fernández Braga Aktiv 139 / 143 40% 1 24.04.2027 -
Yoann Cathline Utrecht Aktiv 131 / 133 40% 4 17.04.2027 Beobachten
Timothy Witsel FC Metz Aktiv 130 / 129 40% 4 08.04.2027 -
Tristan Degreef Anderlecht Aktiv 130 / 127 40% 6 06.04.2027 -
Daan Rots Twente Aktiv 126 / 129 40% 1 05.04.2027 -
Ilay Camara Anderlecht Aktiv 134 / 133 40% 5 30.03.2027 -
Rune Spinnoy Westerlo Aktiv 80 / 78 40% 1 30.03.2027 -
Carlos Álvarez Club America Aktiv 135 / 133 40% 5 29.03.2027 -
Mario Stroeykens Anderlecht Aktiv 133 / 129 40% 4 26.03.2027 -
Osame Sahraoui LOSC Lille Aktiv 145 / 138 40% 1 25.03.2027 -
Abdelkahar Kadri KAA Gent Aktiv 129 / 125 40% 2 24.03.2027 -
Miguel Campos Las Palmas Aktiv 72 / 84 40% 1 17.03.2027 -
Gonçalo Ribeiro Porto Aktiv 89 / 94 40% 1 17.03.2027 -
Jakub Badžgoň MSK Zilina Aktiv 106 / 111 40% 2 15.03.2027 -
Anthony Cletus Bendel Insurance Aktiv 88 / 97 40% 1 15.03.2027 -
Aimé Omgba KAA Gent Aktiv 128 / 125 40% 4 13.03.2027 -
Marcelo Allende Mamelodi Sundowns Aktiv 131 / 133 40% 2 12.03.2027 -
Théo Radelet OH Leuven Aktiv 91 / 99 40% 2 07.03.2027 -
Thibeau Kestemont Club Brugge Aktiv 75 / 93 40% 1 01.03.2027 -
Matteo Dams Club Brugge Aktiv 126 / 129 40% 1 26.02.2027 -
Daan Heymans Racing Genk Aktiv 121 / 122 40% 2 23.02.2027 -
Freddie Potts Club Brugge Aktiv 128 / 132 40% 1 16.02.2027 -
Bongani Zungu Ajax Cape Town Aktiv 124 / 122 40% 1 07.02.2027 -
Rodrigo Muniz Fulham Aktiv 136 / 140 40% 6 06.01.2027 -
Rafiu Durosinmi Racing Genk Aktiv 127 / 134 40% 6 05.01.2027 -
Oscar Gloukh Ajax Aktiv 136 / 132 40% 1 02.01.2027 -
Nicolò Tresoldi Club Brugge Aktiv 131 / 136 40% 5 01.01.2027 -
Stanislav Agkatsev Brentford Aktiv 132 / 133 66% 1 01.01.2027 Befürworten
Georginio Rutter Brighton Aktiv 147 / 153 40% 13 30.12.2026 -
Giacomo Raspadori Atalanta Aktiv 145 / 147 40% 1 28.12.2026 -
Nicolas Jackson Aston Villa Aktiv 149 / 148 40% 2 21.12.2026 -
Chukwubuikem Ikwuemesi OH Leuven Aktiv 120 / 122 40% 7 16.12.2026 -
Cody Gakpo Liverpool Aktiv 162 / 160 40% 1 11.12.2026 -
Ryotaro Araki Sint-Truiden Aktiv 119 / 123 40% 4 22.11.2026 -
Yousef Salech Cardiff City Aktiv 124 / 119 40% 1 13.11.2026 -
Dylan Vente Heerenveen Aktiv 114 / 120 40% 1 07.11.2026 -
Tyrese Campbell Sheffield United Aktiv 131 / 119 40% 2 05.11.2026 -
Alejandro Piedrahita Deportivo Pereira Aktiv 128 / 125 40% 7 30.10.2026 -
Sota Kitano Red Bull Salzburg Aktiv 124 / 119 40% 1 18.10.2026 -
Talles Magno New York City Aktiv 130 / 134 40% 2 16.10.2026 -
Wilson Isidor Sunderland Aktiv 140 / 130 40% 1 16.10.2026 -
Kévin Denkey FC Cincinnati Aktiv 127 / 124 40% 1 11.10.2026 -
Adriano Bertaccini Anderlecht Aktiv 127 / 126 40% 1 04.10.2026 -
Wessam Abou Ali Columbus Crew Aktiv 123 / 126 40% 1 20.09.2026 -
Dejan Joveljić Seattle Sounders Aktiv 129 / 127 40% 1 17.09.2026 -
Alexander Aravena Portland Timbers Aktiv 119 / 123 40% 1 15.09.2026 -
Esteban Obregón Montevideo City Torque Aktiv 112 / 125 40% 1 13.09.2026 -
Oliver Braude Heerenveen Aktiv 120 / 120 79% 1 24.08.2026 Befürworten
Martín Ojeda Orlando City Aktiv 126 / 126 40% 1 10.08.2026 -
Sofyan Amrabat Ajax Aktiv 138 / 135 40% 1 01.08.2026 -
Joaquin Seys Club Brugge Aktiv 124 / 133 40% 1 01.08.2026 -
Guus Til PSV Aktiv 135 / 145 40% 1 01.08.2026 -